logo
Search for airport 
image banner adimage banner adimage banner ad
image banner ad

EPEK - Elk-Makosieje

Located in , Poland

ICAO - , IATA -

Data provided by Airmate  

General information

Coordinates: N53°48'26" E22°32'27"
Elevation is 400 feet MSL.
 
View others Airports in Podlachia

Operational data

Special qualification required
Current time UTC:
Current local time:
Weather at : - ( 0 km )
METAR: ZMUB 281200Z VRB02MPS CAVOK M21/M26 Q1030 NOSIG RMK QFE664.1 67
View NOTAMs / SUP AIP / TFR affecting this airport [VIEW]
Communications frequencies: [VIEW]

Runways:

RWY identifierQFULength (ft)Width (ft)SurfaceLDA (ft)
04150998GRAS1509
22150998GRAS1509

Airport contact information

Address: Poland

Satellite view of EPEK